Terminal Aerodrome Forecast
Issued by NWS

Home | Current Version | Previous Version | Text Only | Print | Product List | Glossary On
Versions: 1 2 3 4 5 6 7 8 9 10 11 12 13 14 15 16 17 18
554
FTUS41 KBTV 241720
TAFRUT
TAF
KRUT 241720Z 2418/2518 34008KT P6SM FEW250
     FM250200 11007KT P6SM FEW200
     FM250800 13008KT P6SM BKN110
     FM251000 13007KT P6SM SCT120
     FM251400 VRB03KT P6SM FEW250
      AMD LTD TO CLD VIS AND WIND=

USA.gov is the U.S. government's official web portal to all federal, state and local government web resources and services.